createdAt,value
2022-08-26T00:00:11.274Z,87.03
2022-08-26T00:01:11.669Z,87.23
2022-08-26T00:02:12.057Z,87.37
2022-08-26T00:03:12.363Z,87.48
2022-08-26T00:04:12.833Z,87.77
2022-08-26T00:05:13.094Z,87.98
2022-08-26T00:06:13.495Z,88.28
2022-08-26T00:07:13.810Z,88.37
2022-08-26T00:08:14.170Z,88.57
2022-08-26T00:09:16.147Z,88.57
2022-08-26T00:10:14.907Z,88.48
2022-08-26T00:11:15.272Z,88.37
2022-08-26T00:12:15.639Z,88.48
2022-08-26T00:13:16.020Z,88.37
2022-08-26T00:14:16.385Z,88.28
2022-08-26T00:15:16.734Z,88.28
2022-08-26T00:16:17.189Z,88.48
2022-08-26T00:17:17.448Z,88.48
2022-08-26T00:18:22.305Z,88.37
2022-08-26T00:19:18.351Z,88.48
2022-08-26T00:20:18.531Z,88.57
2022-08-26T00:21:18.919Z,88.78
2022-08-26T00:22:21.510Z,88.87
2022-08-26T00:23:19.633Z,88.78
2022-08-26T00:24:20.009Z,88.78
2022-08-26T00:25:20.372Z,89.02
2022-08-26T00:26:20.748Z,89.32
2022-08-26T00:27:21.088Z,89.52
2022-08-26T00:28:21.569Z,89.72
2022-08-26T00:29:21.824Z,89.82
2022-08-26T00:30:22.942Z,89.82
2022-08-26T00:31:22.577Z,90.02
2022-08-26T00:32:22.934Z,89.92
2022-08-26T00:33:23.273Z,89.92
2022-08-26T00:34:23.680Z,89.92
2022-08-26T00:35:23.989Z,90.12
2022-08-26T00:36:24.420Z,90.22
2022-08-26T00:37:24.955Z,90.42
2022-08-26T00:38:25.066Z,90.72
2022-08-26T00:39:25.435Z,90.72
2022-08-26T00:40:25.921Z,90.52
2022-08-26T00:41:26.169Z,90.82
2022-08-26T00:42:26.533Z,90.92
2022-08-26T00:43:26.880Z,90.82
2022-08-26T00:44:27.268Z,91.02
2022-08-26T00:45:27.657Z,91.02
2022-08-26T00:46:28.019Z,91.12
2022-08-26T00:47:28.360Z,91.32
2022-08-26T00:48:31.771Z,91.47
2022-08-26T00:49:29.505Z,91.47
2022-08-26T00:50:29.471Z,91.56
2022-08-26T00:51:30.132Z,91.77
2022-08-26T00:52:30.209Z,91.77
2022-08-26T00:53:30.527Z,92.16
2022-08-26T00:54:30.886Z,92.16
2022-08-26T00:55:37.765Z,92.16
2022-08-26T00:56:31.635Z,92.27
2022-08-26T00:57:31.991Z,92.27
2022-08-26T00:58:32.352Z,92.57
2022-08-26T00:59:33.167Z,92.77
2022-08-26T01:00:33.065Z,92.67
2022-08-26T01:01:33.510Z,92.86
2022-08-26T01:02:33.840Z,92.77
2022-08-26T01:03:34.146Z,92.77
2022-08-26T01:04:34.514Z,93.17
2022-08-26T01:05:34.865Z,93.41
2022-08-26T01:06:35.225Z,93.37
2022-08-26T01:07:35.572Z,93.27
2022-08-26T01:08:35.931Z,93.07
2022-08-26T01:09:36.281Z,93.07
2022-08-26T01:10:36.647Z,93.17
2022-08-26T01:11:37.023Z,93.27
2022-08-26T01:12:37.373Z,93.51
2022-08-26T01:13:37.722Z,93.62
2022-08-26T01:14:38.079Z,93.71
2022-08-26T01:15:38.458Z,94.01
2022-08-26T01:16:38.907Z,93.81
2022-08-26T01:17:39.162Z,93.71
2022-08-26T01:18:39.537Z,93.71
2022-08-26T01:19:39.907Z,93.91
2022-08-26T01:20:40.265Z,93.81
2022-08-26T01:21:41.299Z,93.91
2022-08-26T01:22:40.981Z,94.12
2022-08-26T01:23:41.326Z,94.21
2022-08-26T01:24:41.680Z,94.12
2022-08-26T01:25:43.013Z,94.12
2022-08-26T01:26:42.416Z,94.01
2022-08-26T01:27:42.748Z,94.12
2022-08-26T01:28:43.129Z,93.91
2022-08-26T01:29:43.510Z,94.12
2022-08-26T01:30:43.833Z,94.31
2022-08-26T01:31:44.217Z,94.31
2022-08-26T01:32:44.557Z,94.42
2022-08-26T01:33:44.919Z,94.51
2022-08-26T01:34:45.278Z,94.51
2022-08-26T01:35:45.660Z,94.62
2022-08-26T01:36:51.063Z,95.01
2022-08-26T01:37:46.430Z,94.92
2022-08-26T01:38:46.744Z,95.12
2022-08-26T01:39:47.161Z,95.01
2022-08-26T01:40:47.490Z,95.21
2022-08-26T01:41:47.881Z,95.12
2022-08-26T01:42:48.239Z,95.36
2022-08-26T01:43:48.596Z,95.32
2022-08-26T01:44:48.952Z,95.26
2022-08-26T01:45:49.391Z,95.36
2022-08-26T01:46:49.676Z,95.36
2022-08-26T01:47:50.031Z,95.47
2022-08-26T01:48:54.345Z,95.66
2022-08-26T01:49:50.792Z,95.47
2022-08-26T01:50:51.087Z,95.56
2022-08-26T01:51:51.441Z,95.66
2022-08-26T01:52:54.501Z,95.56
2022-08-26T01:53:52.140Z,95.86
2022-08-26T01:54:52.520Z,95.76
2022-08-26T01:55:52.906Z,95.76
2022-08-26T01:56:53.279Z,95.76
2022-08-26T01:57:53.632Z,95.76
2022-08-26T01:58:53.987Z,95.76
2022-08-26T01:59:54.351Z,95.66
2022-08-26T02:00:54.758Z,95.66
2022-08-26T02:01:55.096Z,95.76
2022-08-26T02:02:55.444Z,95.86
2022-08-26T02:03:55.801Z,95.86
2022-08-26T02:04:56.216Z,95.86
2022-08-26T02:05:56.511Z,95.76
2022-08-26T02:06:56.892Z,95.76
2022-08-26T02:07:57.242Z,95.97
2022-08-26T02:08:57.599Z,96.06
2022-08-26T02:09:57.956Z,96.26
2022-08-26T02:10:58.326Z,96.47
2022-08-26T02:11:58.687Z,96.47
2022-08-26T02:12:59.064Z,96.61
2022-08-26T02:13:59.453Z,96.56
2022-08-26T02:14:59.775Z,96.71
2022-08-26T02:16:00.173Z,96.81
2022-08-26T02:17:00.526Z,96.77
2022-08-26T02:18:00.876Z,96.81
2022-08-26T02:19:01.237Z,96.81
2022-08-26T02:20:01.614Z,96.81
2022-08-26T02:21:01.971Z,97.11
2022-08-26T02:22:02.356Z,97.21
2022-08-26T02:23:02.699Z,97.31
2022-08-26T02:24:03.063Z,97.41
2022-08-26T02:25:03.418Z,97.41
2022-08-26T02:26:03.785Z,97.52
2022-08-26T02:27:04.170Z,97.72
2022-08-26T02:28:04.514Z,97.61
2022-08-26T02:29:04.871Z,97.61
2022-08-26T02:30:05.273Z,97.72
2022-08-26T02:31:05.620Z,97.72
2022-08-26T02:32:05.955Z,97.72
2022-08-26T02:33:06.689Z,97.81
2022-08-26T02:34:06.684Z,98.02
2022-08-26T02:35:07.058Z,98.22
2022-08-26T02:36:07.467Z,98.11
2022-08-26T02:37:07.871Z,98.11
2022-08-26T02:38:10.214Z,98.11
2022-08-26T02:39:08.501Z,98.32
2022-08-26T02:40:08.868Z,98.42
2022-08-26T02:41:09.236Z,98.42
2022-08-26T02:42:09.601Z,98.42
2022-08-26T02:43:10.083Z,98.46
2022-08-26T02:44:10.289Z,98.66
2022-08-26T02:45:10.657Z,98.86
2022-08-26T02:46:11.031Z,99.07
2022-08-26T02:47:11.425Z,98.97
2022-08-26T02:48:11.725Z,98.97
2022-08-26T02:49:12.094Z,99.07
2022-08-26T02:50:12.449Z,99.16
2022-08-26T02:51:12.814Z,99.16
2022-08-26T02:52:13.177Z,99.07
2022-08-26T02:53:13.530Z,99.27
2022-08-26T02:54:13.882Z,99.57
2022-08-26T02:55:14.244Z,99.67
2022-08-26T02:56:14.601Z,99.77
2022-08-26T02:57:15.011Z,99.67
2022-08-26T02:58:15.306Z,99.77
2022-08-26T02:59:15.662Z,99.77
2022-08-26T03:00:16.029Z,99.87
2022-08-26T03:01:16.498Z,99.87
2022-08-26T03:02:16.862Z,99.67
2022-08-26T03:04:14.218Z,99.87
2022-08-26T03:05:15.590Z,99.97
2022-08-26T03:06:15.966Z,99.91
2022-08-26T03:07:16.316Z,99.99
2022-08-26T03:08:16.693Z,99.99
2022-08-26T03:09:18.926Z,99.99
2022-08-26T03:10:17.405Z,99.99
2022-08-26T03:11:17.772Z,99.99
2022-08-26T03:12:18.130Z,99.99
2022-08-26T03:13:18.512Z,99.99
2022-08-26T03:14:18.870Z,99.99
2022-08-26T03:15:19.224Z,99.99
2022-08-26T03:16:19.661Z,99.99
2022-08-26T03:17:19.944Z,99.99
2022-08-26T03:18:20.526Z,99.99
2022-08-26T03:19:20.658Z,99.99
2022-08-26T03:20:21.019Z,99.99
2022-08-26T03:21:21.371Z,99.99
2022-08-26T03:22:21.732Z,99.99
2022-08-26T03:23:22.131Z,99.99
2022-08-26T03:24:22.449Z,99.99
2022-08-26T03:25:22.815Z,99.99
2022-08-26T03:26:23.171Z,99.99
2022-08-26T03:27:23.542Z,99.99
2022-08-26T03:28:23.946Z,99.99
2022-08-26T03:29:24.231Z,99.99
2022-08-26T03:30:24.650Z,99.99
2022-08-26T03:31:24.980Z,99.99
2022-08-26T03:32:26.965Z,99.99
2022-08-26T03:33:25.704Z,99.99
2022-08-26T03:34:26.064Z,99.99
2022-08-26T03:35:26.437Z,99.99
2022-08-26T03:36:26.859Z,99.99
2022-08-26T03:37:27.186Z,99.99
2022-08-26T03:38:27.603Z,99.99
2022-08-26T03:39:27.936Z,99.99
2022-08-26T03:40:28.993Z,99.99
2022-08-26T03:41:28.339Z,99.99
2022-08-26T03:42:28.504Z,99.99
2022-08-26T03:43:28.926Z,99.99
2022-08-26T03:44:29.239Z,99.99
2022-08-26T03:45:29.468Z,99.99
2022-08-26T03:46:29.742Z,99.99
2022-08-26T03:47:29.811Z,99.99
2022-08-26T03:48:30.215Z,99.99
2022-08-26T03:49:30.402Z,99.99
2022-08-26T03:50:30.488Z,99.99
2022-08-26T03:51:30.698Z,99.99
2022-08-26T03:52:30.952Z,99.99
2022-08-26T03:53:31.125Z,99.99
2022-08-26T03:54:31.315Z,99.99
2022-08-26T03:55:31.469Z,99.99
2022-08-26T03:56:31.638Z,99.99
2022-08-26T03:57:31.801Z,99.99
2022-08-26T03:58:32.101Z,99.99
2022-08-26T03:59:32.270Z,99.99
2022-08-26T04:00:32.452Z,99.99
2022-08-26T04:01:32.678Z,99.99
2022-08-26T04:02:32.938Z,99.99
2022-08-26T04:03:33.217Z,99.99
2022-08-26T04:04:33.388Z,99.99
2022-08-26T04:05:33.555Z,99.99
2022-08-26T04:06:33.754Z,99.99
2022-08-26T04:07:34.032Z,99.99
2022-08-26T04:08:34.256Z,99.99
2022-08-26T04:09:35.133Z,99.99
2022-08-26T04:10:34.680Z,99.99
2022-08-26T04:11:35.016Z,99.99
2022-08-26T04:12:35.029Z,99.99
2022-08-26T04:13:35.237Z,99.99
2022-08-26T04:14:35.507Z,99.99
2022-08-26T04:15:35.812Z,99.99
2022-08-26T04:16:36.066Z,99.99
2022-08-26T04:17:36.261Z,99.99
2022-08-26T04:18:37.235Z,99.99
2022-08-26T04:19:36.623Z,99.99
2022-08-26T04:20:36.813Z,99.99
2022-08-26T04:21:36.997Z,99.99
2022-08-26T04:22:37.211Z,99.99
2022-08-26T04:23:47.764Z,99.99
2022-08-26T04:24:37.545Z,99.99
2022-08-26T04:25:37.698Z,99.99
2022-08-26T04:26:39.564Z,99.99
2022-08-26T04:27:38.121Z,99.99
2022-08-26T04:28:38.306Z,99.99
2022-08-26T04:29:38.425Z,99.99
2022-08-26T04:30:38.617Z,99.99
2022-08-26T04:31:38.828Z,99.99
2022-08-26T04:32:38.985Z,99.99
2022-08-26T04:33:41.707Z,99.99
2022-08-26T04:34:39.325Z,99.99
2022-08-26T04:35:40.620Z,99.99
2022-08-26T04:36:39.682Z,99.99
2022-08-26T04:37:39.858Z,99.99
2022-08-26T04:38:40.107Z,99.99
2022-08-26T04:39:40.206Z,99.99
2022-08-26T04:40:40.396Z,99.99
2022-08-26T04:41:40.578Z,99.99
2022-08-26T04:42:40.746Z,99.99
2022-08-26T04:43:40.943Z,99.99
2022-08-26T04:44:41.120Z,99.99
2022-08-26T04:45:41.286Z,99.99
2022-08-26T04:46:43.844Z,99.99
2022-08-26T04:47:41.671Z,99.99
2022-08-26T04:48:41.849Z,99.99
2022-08-26T04:49:42.015Z,99.99
2022-08-26T04:50:42.354Z,99.99
2022-08-26T04:51:44.010Z,99.99
2022-08-26T04:52:42.670Z,99.99
2022-08-26T04:53:42.838Z,99.99
2022-08-26T04:54:43.027Z,99.99
2022-08-26T04:55:45.105Z,99.99
2022-08-26T04:56:43.412Z,99.99
2022-08-26T04:57:43.587Z,99.72
2022-08-26T04:58:43.921Z,99.72
2022-08-26T04:59:44.068Z,99.32
2022-08-26T05:00:44.341Z,99.12
2022-08-26T05:01:44.511Z,98.82
2022-08-26T05:02:44.666Z,98.67
2022-08-26T05:03:44.889Z,98.37
2022-08-26T05:04:45.025Z,97.92
2022-08-26T05:05:45.222Z,97.52
2022-08-26T05:06:45.418Z,97.32
2022-08-26T05:07:45.612Z,97.02
2022-08-26T05:08:45.865Z,96.82
2022-08-26T05:09:46.021Z,96.37
2022-08-26T05:10:46.225Z,96.47
2022-08-26T05:11:48.431Z,96.03
2022-08-26T05:12:46.613Z,95.43
2022-08-26T05:13:46.829Z,95.32
2022-08-26T05:14:47.001Z,95.97
2022-08-26T05:15:47.253Z,95.67
2022-08-26T05:16:47.732Z,95.62
2022-08-26T05:17:47.580Z,95.23
2022-08-26T05:18:47.786Z,95.53
2022-08-26T05:19:47.944Z,95.57
2022-08-26T05:20:48.176Z,96.17
2022-08-26T05:21:48.367Z,96.58
2022-08-26T05:22:48.545Z,97.02
2022-08-26T05:23:48.757Z,97.02
2022-08-26T05:24:48.911Z,96.88
2022-08-26T05:25:49.116Z,96.77
2022-08-26T05:26:49.311Z,96.47
2022-08-26T05:27:49.508Z,96.27
2022-08-26T05:28:49.705Z,96.77
2022-08-26T05:29:54.519Z,97.02
2022-08-26T05:30:50.127Z,97.42
2022-08-26T05:31:50.238Z,97.22
2022-08-26T05:32:53.640Z,97.62
2022-08-26T05:33:50.658Z,97.08
2022-08-26T05:34:50.829Z,96.77
2022-08-26T05:35:51.003Z,96.67
2022-08-26T05:36:51.223Z,96.88
2022-08-26T05:37:51.371Z,97.08
2022-08-26T05:38:51.626Z,97.17
2022-08-26T05:39:51.757Z,97.17
2022-08-26T05:40:52.679Z,97.08
2022-08-26T05:41:52.152Z,96.97
2022-08-26T05:42:52.356Z,96.88
2022-08-26T05:43:52.562Z,96.33
2022-08-26T05:44:55.404Z,95.53
2022-08-26T05:45:52.913Z,95.18
2022-08-26T05:46:53.201Z,95.18
2022-08-26T05:47:53.270Z,95.08
2022-08-26T05:48:53.495Z,94.98
2022-08-26T05:49:53.658Z,94.98
2022-08-26T05:50:53.809Z,94.98
2022-08-26T05:51:54.011Z,94.98
2022-08-26T05:52:54.215Z,94.98
2022-08-26T05:53:55.067Z,95.28
2022-08-26T05:54:54.594Z,95.62
2022-08-26T05:55:54.803Z,96.13
2022-08-26T05:56:54.992Z,96.23
2022-08-26T05:57:55.189Z,95.93
2022-08-26T05:58:55.392Z,96.33
2022-08-26T05:59:55.563Z,96.83
2022-08-26T06:00:55.780Z,96.83
2022-08-26T06:01:55.946Z,97.03
2022-08-26T06:02:56.225Z,97.03
2022-08-26T06:03:56.402Z,97.13
2022-08-26T06:04:56.517Z,96.93
2022-08-26T06:05:56.704Z,97.13
2022-08-26T06:06:56.857Z,96.93
2022-08-26T06:07:57.060Z,97.13
2022-08-26T06:08:57.291Z,97.03
2022-08-26T06:10:15.369Z,96.93
2022-08-26T06:10:57.657Z,96.68
2022-08-26T06:11:57.849Z,96.38
2022-08-26T06:12:58.063Z,96.28
2022-08-26T06:14:03.139Z,96.38
2022-08-26T06:14:58.446Z,96.48
2022-08-26T06:15:58.655Z,96.58
2022-08-26T06:16:58.759Z,96.68
2022-08-26T06:17:58.968Z,96.38
2022-08-26T06:18:59.182Z,96.48
2022-08-26T06:19:59.364Z,96.18
2022-08-26T06:20:59.561Z,96.48
2022-08-26T06:21:59.769Z,96.48
2022-08-26T06:22:59.931Z,96.14
2022-08-26T06:24:00.145Z,95.64
2022-08-26T06:25:00.304Z,95.54
2022-08-26T06:26:00.499Z,95.34
2022-08-26T06:27:00.694Z,95.43
2022-08-26T06:28:00.891Z,95.94
2022-08-26T06:29:01.703Z,95.73
2022-08-26T06:30:01.269Z,95.54
2022-08-26T06:31:01.485Z,95.04
2022-08-26T06:32:01.659Z,95.04
2022-08-26T06:33:01.851Z,94.73
2022-08-26T06:34:02.043Z,94.49
2022-08-26T06:35:02.197Z,94.43
2022-08-26T06:36:02.425Z,94.64
2022-08-26T06:37:02.817Z,94.84
2022-08-26T06:38:02.750Z,94.93
2022-08-26T06:39:03.006Z,94.59
2022-08-26T06:40:03.161Z,94.49
2022-08-26T06:41:03.317Z,94.23
2022-08-26T06:42:06.229Z,94.69
2022-08-26T06:43:03.709Z,94.29
2022-08-26T06:44:03.949Z,93.79
2022-08-26T06:45:04.138Z,93.89
2022-08-26T06:46:04.970Z,93.99
2022-08-26T06:47:04.501Z,94.09
2022-08-26T06:48:04.685Z,93.69
2022-08-26T06:49:04.869Z,94.34
2022-08-26T06:50:05.071Z,94.73
2022-08-26T06:51:05.260Z,94.93
2022-08-26T06:52:05.463Z,94.84
2022-08-26T06:53:05.623Z,95.04
2022-08-26T06:54:05.826Z,95.04
2022-08-26T06:55:06.016Z,95.23
2022-08-26T06:56:06.186Z,95.38
2022-08-26T06:57:06.391Z,95.98
2022-08-26T06:58:06.569Z,96.48
2022-08-26T06:59:07.176Z,96.68
2022-08-26T07:00:06.961Z,96.93
2022-08-26T07:01:11.612Z,96.63
2022-08-26T07:02:07.470Z,96.73
2022-08-26T07:03:07.826Z,96.38
2022-08-26T07:04:10.454Z,96.48
2022-08-26T07:05:07.958Z,96.18
2022-08-26T07:06:08.204Z,95.54
2022-08-26T07:07:08.312Z,95.04
2022-08-26T07:08:08.513Z,95.23
2022-08-26T07:09:09.878Z,95.34
2022-08-26T07:10:08.887Z,95.04
2022-08-26T07:11:09.077Z,95.04
2022-08-26T07:12:09.270Z,94.59
2022-08-26T07:13:09.663Z,94.39
2022-08-26T07:14:09.733Z,93.99
2022-08-26T07:15:09.866Z,94.39
2022-08-26T07:16:10.112Z,93.89
2022-08-26T07:17:13.859Z,93.69
2022-08-26T07:18:10.474Z,93.44
2022-08-26T07:19:11.622Z,93.15
2022-08-26T07:20:10.842Z,92.70
2022-08-26T07:21:11.090Z,92.50
2022-08-26T07:22:11.236Z,92.00
2022-08-26T07:23:11.873Z,91.80
2022-08-26T07:24:11.622Z,92.06
2022-08-26T07:25:11.765Z,91.31
2022-08-26T07:26:11.921Z,90.32
2022-08-26T07:27:12.120Z,90.62
2022-08-26T07:28:12.309Z,90.02
2022-08-26T07:29:12.696Z,91.50
2022-08-26T07:30:14.868Z,91.90
2022-08-26T07:31:12.933Z,91.80
2022-08-26T07:32:13.107Z,91.36
2022-08-26T07:33:13.295Z,91.06
2022-08-26T07:34:13.510Z,92.10
2022-08-26T07:35:13.675Z,92.40
2022-08-26T07:36:13.879Z,92.40
2022-08-26T07:37:14.110Z,92.20
2022-08-26T07:38:14.299Z,92.70
2022-08-26T07:39:14.514Z,92.16
2022-08-26T07:40:14.729Z,91.86
2022-08-26T07:41:14.825Z,91.42
2022-08-26T07:42:15.030Z,91.42
2022-08-26T07:43:15.238Z,91.47
2022-08-26T07:44:15.444Z,90.37
2022-08-26T07:45:15.592Z,90.17
2022-08-26T07:46:16.563Z,90.92
2022-08-26T07:47:24.769Z,92.06
2022-08-26T07:48:16.211Z,92.36
2022-08-26T07:49:16.453Z,92.06
2022-08-26T07:50:16.564Z,92.36
2022-08-26T07:51:16.717Z,92.56
2022-08-26T07:52:16.919Z,92.66
2022-08-26T07:53:18.121Z,92.21
2022-08-26T07:54:17.297Z,91.72
2022-08-26T07:55:17.461Z,91.22
2022-08-26T07:56:17.671Z,91.72
2022-08-26T07:57:19.159Z,91.22
2022-08-26T07:58:18.035Z,90.97
2022-08-26T07:59:18.257Z,89.94
2022-08-26T08:00:18.418Z,90.08
2022-08-26T08:01:18.667Z,91.22
2022-08-26T08:02:18.832Z,91.02
2022-08-26T08:03:19.008Z,90.47
2022-08-26T08:04:22.997Z,90.37
2022-08-26T08:05:19.490Z,90.08
2022-08-26T08:06:19.592Z,90.17
2022-08-26T08:07:19.845Z,90.13
2022-08-26T08:08:27.972Z,89.23
2022-08-26T08:09:20.170Z,89.14
2022-08-26T08:10:20.821Z,89.83
2022-08-26T08:11:20.509Z,89.78
2022-08-26T08:12:20.706Z,89.38
2022-08-26T08:13:20.898Z,90.37
2022-08-26T08:14:22.235Z,89.68
2022-08-26T08:15:21.302Z,89.38
2022-08-26T08:16:21.517Z,89.07
2022-08-26T08:17:21.643Z,89.98
2022-08-26T08:18:21.848Z,89.43
2022-08-26T08:19:22.061Z,88.43
2022-08-26T08:20:22.220Z,87.80
2022-08-26T08:21:24.161Z,86.76
2022-08-26T08:22:22.613Z,86.70
2022-08-26T08:23:22.823Z,87.10
2022-08-26T08:24:23.026Z,88.13
2022-08-26T08:25:23.194Z,87.99
2022-08-26T08:26:23.394Z,87.20
2022-08-26T08:27:24.321Z,86.86
2022-08-26T08:28:23.786Z,86.70
2022-08-26T08:29:23.981Z,86.66
2022-08-26T08:30:24.131Z,86.26
2022-08-26T08:31:52.495Z,86.16
2022-08-26T08:32:24.519Z,86.46
2022-08-26T08:33:24.711Z,86.96
2022-08-26T08:34:24.926Z,87.60
2022-08-26T08:35:25.097Z,88.10
2022-08-26T08:36:25.294Z,88.10
2022-08-26T08:37:25.505Z,88.54
2022-08-26T08:38:25.669Z,89.28
2022-08-26T08:39:25.928Z,89.68
2022-08-26T08:40:26.173Z,89.58
2022-08-26T08:41:26.308Z,89.58
2022-08-26T08:42:26.456Z,89.28
2022-08-26T08:43:26.606Z,89.03
2022-08-26T08:45:26.958Z,88.84
2022-08-26T08:46:27.196Z,89.18
2022-08-26T08:47:27.353Z,89.68
2022-08-26T08:48:27.782Z,89.48
2022-08-26T08:49:27.757Z,89.48
2022-08-26T08:50:27.893Z,89.78
2022-08-26T08:51:28.092Z,90.22
2022-08-26T08:52:28.332Z,90.42
2022-08-26T08:53:28.494Z,91.26
2022-08-26T08:54:28.692Z,91.76
2022-08-26T08:55:28.848Z,92.50
2022-08-26T08:56:29.045Z,92.70
2022-08-26T08:57:29.240Z,93.10
2022-08-26T08:58:29.442Z,93.50
2022-08-26T08:59:29.635Z,93.95
2022-08-26T09:00:30.627Z,94.15
2022-08-26T09:01:30.074Z,94.65
2022-08-26T09:02:30.386Z,95.99
2022-08-26T09:03:30.471Z,96.79
2022-08-26T09:04:36.707Z,97.34
2022-08-26T09:05:30.858Z,98.03
2022-08-26T09:06:31.035Z,98.64
2022-08-26T09:07:33.244Z,99.44
2022-08-26T09:08:31.393Z,99.99
2022-08-26T09:09:31.547Z,99.68
2022-08-26T09:10:31.738Z,99.88
2022-08-26T09:11:31.880Z,99.99
2022-08-26T09:12:32.061Z,99.99
2022-08-26T09:13:32.240Z,99.99
2022-08-26T09:14:32.417Z,99.99
2022-08-26T09:15:32.668Z,99.99
2022-08-26T09:16:32.791Z,99.99
2022-08-26T09:17:32.990Z,99.99
2022-08-26T09:18:33.146Z,99.99
2022-08-26T09:19:33.324Z,99.99
2022-08-26T09:20:33.556Z,99.99
2022-08-26T09:21:33.658Z,99.99
2022-08-26T09:22:33.854Z,99.99
2022-08-26T09:23:34.099Z,99.99
2022-08-26T09:24:37.301Z,99.99
2022-08-26T09:25:34.381Z,99.99
2022-08-26T09:26:34.564Z,99.99
2022-08-26T09:27:34.717Z,99.99
2022-08-26T09:28:34.939Z,99.99
2022-08-26T09:29:35.095Z,99.99
2022-08-26T09:30:35.385Z,99.99
2022-08-26T09:31:35.565Z,99.99
2022-08-26T09:32:35.680Z,99.99
2022-08-26T09:33:35.847Z,99.99
2022-08-26T09:34:36.058Z,99.99
2022-08-26T09:35:36.297Z,99.99
2022-08-26T09:36:39.452Z,99.99
2022-08-26T09:37:36.709Z,99.99
2022-08-26T09:38:36.835Z,99.99
2022-08-26T09:39:37.860Z,99.99
2022-08-26T09:40:37.251Z,99.99
2022-08-26T09:41:37.372Z,99.99
2022-08-26T09:42:37.937Z,99.99
2022-08-26T09:43:37.760Z,99.99
2022-08-26T09:44:37.957Z,99.99
2022-08-26T09:45:38.164Z,99.99
2022-08-26T09:47:38.469Z,91.48
2022-08-26T09:48:41.165Z,90.98
2022-08-26T09:49:38.880Z,95.79
2022-08-26T09:50:39.063Z,97.09
2022-08-26T09:51:39.280Z,96.15
2022-08-26T09:52:40.468Z,93.44
2022-08-26T09:53:39.614Z,96.10
2022-08-26T09:54:39.784Z,96.91
2022-08-26T09:55:39.967Z,98.01
2022-08-26T09:56:40.139Z,98.51
2022-08-26T09:57:40.294Z,99.99
2022-08-26T09:58:40.498Z,99.99
2022-08-26T09:59:40.659Z,96.55
2022-08-26T10:00:40.884Z,95.24
2022-08-26T10:01:41.135Z,92.83
2022-08-26T10:02:41.220Z,96.04
2022-08-26T10:03:41.417Z,96.80
2022-08-26T10:04:41.687Z,97.66
2022-08-26T10:05:41.830Z,97.66
2022-08-26T10:06:41.985Z,98.86
2022-08-26T10:07:42.163Z,99.99
2022-08-26T10:08:42.375Z,99.99
2022-08-26T10:09:42.599Z,99.99
2022-08-26T10:10:42.760Z,99.99
2022-08-26T10:11:42.908Z,99.99
2022-08-26T10:12:43.104Z,99.99
2022-08-26T10:13:43.333Z,99.99
2022-08-26T10:15:50.036Z,99.99
2022-08-26T10:16:43.913Z,99.77
2022-08-26T10:17:44.037Z,98.97
2022-08-26T10:18:44.202Z,98.93
2022-08-26T10:19:57.009Z,98.52
2022-08-26T10:20:44.583Z,98.28
2022-08-26T10:21:44.769Z,98.38
2022-08-26T10:22:44.925Z,98.78
2022-08-26T10:23:45.305Z,99.99
2022-08-26T10:24:46.372Z,99.99
2022-08-26T10:25:45.536Z,99.99
2022-08-26T10:26:45.723Z,99.99
2022-08-26T10:27:51.206Z,99.99
2022-08-26T10:28:46.104Z,99.99
2022-08-26T10:29:46.316Z,99.59
2022-08-26T10:30:46.528Z,98.79
2022-08-26T10:31:46.746Z,99.54
2022-08-26T10:32:46.926Z,97.79
2022-08-26T10:33:47.127Z,97.99
2022-08-26T10:34:47.316Z,98.59
2022-08-26T10:35:47.558Z,99.09
2022-08-26T10:37:10.573Z,97.55
2022-08-26T10:37:47.924Z,98.90
2022-08-26T10:38:48.092Z,98.55
2022-08-26T10:39:49.177Z,96.70
2022-08-26T10:40:49.123Z,96.26
2022-08-26T10:41:48.676Z,94.17
2022-08-26T10:42:48.890Z,94.17
2022-08-26T10:43:49.096Z,96.01
2022-08-26T10:44:49.252Z,94.57
2022-08-26T10:45:49.569Z,90.09
2022-08-26T10:46:49.685Z,90.83
2022-08-26T10:47:49.869Z,91.28
2022-08-26T10:48:50.047Z,91.95
2022-08-26T10:49:50.272Z,91.66
2022-08-26T10:50:50.444Z,90.03
2022-08-26T10:51:50.649Z,88.74
2022-08-26T10:52:50.882Z,88.85
2022-08-26T10:53:51.627Z,85.55
2022-08-26T10:54:51.288Z,84.28
2022-08-26T10:55:51.546Z,81.57
2022-08-26T10:56:51.761Z,79.55
2022-08-26T10:57:51.984Z,80.66
2022-08-26T10:58:52.172Z,78.44
2022-08-26T10:59:52.494Z,78.34
2022-08-26T11:00:52.608Z,79.20
2022-08-26T11:01:52.804Z,80.05
2022-08-26T11:02:52.892Z,78.72
2022-08-26T11:03:53.155Z,77.76
2022-08-26T11:04:53.283Z,77.59
2022-08-26T11:05:53.500Z,74.50
2022-08-26T11:06:53.691Z,74.43
2022-08-26T11:07:53.903Z,73.32
2022-08-26T11:08:54.119Z,70.07
2022-08-26T11:09:54.297Z,74.21
2022-08-26T11:10:54.510Z,72.30
2022-08-26T11:11:54.685Z,70.14
2022-08-26T11:12:54.860Z,69.90
2022-08-26T11:13:55.051Z,66.07
2022-08-26T11:14:58.749Z,67.22
2022-08-26T11:15:55.521Z,66.89
2022-08-26T11:16:55.688Z,62.63
2022-08-26T11:17:55.863Z,66.83
2022-08-26T11:18:56.042Z,65.45
2022-08-26T11:20:01.984Z,62.05
2022-08-26T11:20:56.481Z,63.07
2022-08-26T11:21:56.678Z,62.12
2022-08-26T11:22:59.576Z,61.36
2022-08-26T11:23:57.061Z,62.50
2022-08-26T11:24:57.254Z,65.45
2022-08-26T11:25:57.577Z,68.63
2022-08-26T11:26:57.638Z,67.55
2022-08-26T11:27:57.834Z,65.02
2022-08-26T11:28:58.022Z,63.78
2022-08-26T11:29:58.209Z,61.88
2022-08-26T11:30:58.538Z,61.78
2022-08-26T11:31:58.701Z,64.14
2022-08-26T11:32:58.815Z,61.95
2022-08-26T11:33:59.479Z,62.27
2022-08-26T11:34:59.190Z,63.13
2022-08-26T11:35:59.407Z,61.40
2022-08-26T11:36:59.594Z,59.86
2022-08-26T11:37:59.800Z,60.80
2022-08-26T11:38:59.975Z,62.76
2022-08-26T11:40:00.260Z,62.57
2022-08-26T11:41:00.393Z,64.37
2022-08-26T11:42:00.597Z,61.16
2022-08-26T11:43:00.804Z,64.46
2022-08-26T11:44:01.262Z,66.92
2022-08-26T11:45:04.717Z,66.53
2022-08-26T11:46:01.471Z,67.81
2022-08-26T11:47:01.591Z,66.92
2022-08-26T11:48:01.847Z,66.75
2022-08-26T11:49:01.944Z,67.68
2022-08-26T11:50:02.158Z,67.71
2022-08-26T11:51:02.460Z,69.26
2022-08-26T11:52:02.561Z,69.65
2022-08-26T11:53:03.018Z,67.28
2022-08-26T11:54:02.990Z,66.79
2022-08-26T11:55:03.173Z,67.84
2022-08-26T11:56:03.389Z,67.91
2022-08-26T11:57:07.759Z,72.18
2022-08-26T11:58:04.816Z,73.43
2022-08-26T11:59:03.962Z,76.85
2022-08-26T12:00:04.186Z,80.10
2022-08-26T12:01:04.379Z,81.33
2022-08-26T12:02:04.610Z,83.31
2022-08-26T12:03:04.874Z,82.18
2022-08-26T12:04:05.150Z,82.22
2022-08-26T12:05:05.213Z,82.12
2022-08-26T12:06:05.388Z,82.08
2022-08-26T12:07:05.596Z,81.15
2022-08-26T12:08:06.272Z,80.62
2022-08-26T12:09:05.989Z,80.62
2022-08-26T12:10:06.172Z,79.53
2022-08-26T12:11:06.381Z,78.05
2022-08-26T12:12:06.557Z,80.22
2022-08-26T12:13:06.770Z,78.98
2022-08-26T12:14:07.275Z,80.30
2022-08-26T12:15:07.151Z,80.63
2022-08-26T12:16:07.601Z,80.69
2022-08-26T12:17:07.560Z,80.20
2022-08-26T12:18:07.900Z,79.61
2022-08-26T12:19:07.994Z,80.24
2022-08-26T12:20:08.152Z,80.54
2022-08-26T12:21:08.355Z,79.45
2022-08-26T12:22:08.559Z,80.44
2022-08-26T12:23:08.745Z,80.14
2022-08-26T12:24:08.929Z,79.51
2022-08-26T12:25:09.128Z,78.78
2022-08-26T12:26:10.422Z,78.15
2022-08-26T12:27:09.497Z,78.94
2022-08-26T12:28:09.963Z,76.47
2022-08-26T12:29:19.881Z,75.01
2022-08-26T12:30:10.090Z,76.46
2022-08-26T12:31:10.401Z,76.20
2022-08-26T12:32:10.556Z,74.46
2022-08-26T12:33:19.929Z,77.36
2022-08-26T12:34:11.717Z,75.81
2022-08-26T12:35:11.101Z,76.97
2022-08-26T12:36:11.338Z,76.67
2022-08-26T12:37:11.521Z,76.31
2022-08-26T12:38:11.707Z,75.71
2022-08-26T12:39:11.986Z,79.02
2022-08-26T12:40:12.187Z,78.42
2022-08-26T12:41:12.317Z,77.79
2022-08-26T12:42:12.560Z,77.50
2022-08-26T12:43:12.711Z,77.73
2022-08-26T12:44:12.893Z,77.83
2022-08-26T12:45:13.127Z,78.86
2022-08-26T12:46:13.327Z,79.05
2022-08-26T12:47:13.495Z,79.29
2022-08-26T12:48:13.713Z,79.13
2022-08-26T12:49:13.924Z,79.09
2022-08-26T12:50:14.127Z,79.33
2022-08-26T12:51:14.365Z,79.82
2022-08-26T12:52:14.528Z,76.85
2022-08-26T12:53:14.727Z,78.40
2022-08-26T12:54:14.944Z,78.50
2022-08-26T12:55:15.145Z,77.55
2022-08-26T12:56:15.365Z,78.38
2022-08-26T12:57:15.584Z,78.74
2022-08-26T12:58:15.733Z,78.10
2022-08-26T12:59:16.424Z,78.87